Dimock, South Dakota
Current Conditions -  °F | °C
As of 9:53 AM on Tuesday 21 Oct 2014 (Local Time) from KMHE Reporting Station
Clear Clear  
Wind Chill: 55°   Ceiling: Unl
Heat Index: 55°   Visibility: 10mi
Dew Point: 40°   Wind: 16mph
Humidity: 57%   Direction: 150°SSE
Pressure: 30"   Gusts: NA
Location:  43.47°N, 97.99°W
Report Text: KMHE 211453Z AUTO 15014KT 10SM CLR 13/04 A3000 RMK AO2 SLP162 T01280044 58005
Loading
Personal Weather Stations






























Interactive Weather Map
Tropical Storm Tracking
New forecast layout! Learn more

10-Day Weather Forecast

Advertisements
Track Severe Weather on mobile